Time;durP1;ratioP1;P1;durP2;ratioP2;P2;SDS_P1;SDS_P2;PMS_P1;PMS_P2;Temp;Humidity;BMP_temperature;BMP_pressure;BME280_temperature;BME280_humidity;BME280_pressure;Samples;Min_cycle;Max_cycle;Signal;HPM_P1;HPM_P2
2023/09/04 00:01:24;;;;;;;10.70;7.30;;;;;;;18.85;100.00;100190.63;104916;1266;65964;-60
2023/09/04 00:03:52;;;;;;;9.20;7.00;;;;;;;18.81;100.00;100190.14;105165;1262;72727;-62
2023/09/04 00:06:19;;;;;;;10.00;6.90;;;;;;;18.79;100.00;100191.94;104918;1266;61258;-60
2023/09/04 00:08:46;;;;;;;10.10;8.00;;;;;;;18.77;100.00;100193.81;104984;1262;61373;-60
2023/09/04 00:11:13;;;;;;;11.10;7.00;;;;;;;18.75;100.00;100188.66;105070;1262;73375;-60
2023/09/04 00:13:41;;;;;;;10.50;7.60;;;;;;;18.72;100.00;100188.89;105037;1266;66037;-59
2023/09/04 00:16:07;;;;;;;10.00;7.70;;;;;;;18.69;100.00;100183.48;104920;1263;72647;-59
2023/09/04 00:18:35;;;;;;;10.60;8.80;;;;;;;18.67;100.00;100184.42;104957;1262;61875;-60
2023/09/04 00:21:03;;;;;;;10.10;8.30;;;;;;;18.65;100.00;100182.20;105196;1263;61900;-61
2023/09/04 00:23:30;;;;;;;11.00;8.30;;;;;;;18.64;100.00;100180.02;105103;1262;73300;-59
2023/09/04 00:25:56;;;;;;;10.60;8.20;;;;;;;18.63;100.00;100177.61;104798;1267;66032;-61
2023/09/04 00:28:24;;;;;;;12.40;8.00;;;;;;;18.61;100.00;100176.33;104983;1262;72706;-60
2023/09/04 00:30:51;;;;;;;13.40;9.20;;;;;;;18.60;100.00;100173.54;105044;1262;62100;-60
2023/09/04 00:33:18;;;;;;;12.50;9.20;;;;;;;18.58;100.00;100172.02;105151;1262;61333;-61
2023/09/04 00:35:45;;;;;;;10.70;9.10;;;;;;;18.56;100.00;100168.95;104646;1268;74117;-60
2023/09/04 00:38:12;;;;;;;9.70;8.20;;;;;;;18.55;100.00;100166.54;105041;1262;67269;-60
2023/09/04 00:40:39;;;;;;;11.80;9.40;;;;;;;18.54;100.00;100163.88;104938;1263;72478;-60
2023/09/04 00:43:07;;;;;;;10.90;8.00;;;;;;;18.52;100.00;100167.85;105062;1262;62061;-59
2023/09/04 00:45:34;;;;;;;12.70;9.00;;;;;;;18.50;100.00;100167.67;105291;1264;59704;-62
2023/09/04 00:48:02;;;;;;;11.10;8.90;;;;;;;18.49;100.00;100171.50;105051;1268;73880;-59
2023/09/04 00:50:30;;;;;;;10.90;8.20;;;;;;;18.46;100.00;100167.34;105054;1267;67638;-60
2023/09/04 00:52:59;;;;;;;10.80;8.80;;;;;;;18.43;100.00;100168.02;105140;1262;72365;-62
2023/09/04 00:55:26;;;;;;;10.50;8.30;;;;;;;18.39;100.00;100165.99;104994;1267;61217;-61
2023/09/04 00:57:53;;;;;;;10.70;8.60;;;;;;;18.37;100.00;100164.88;105003;1263;61218;-61
2023/09/04 01:00:23;;;;;;;12.20;9.40;;;;;;;18.37;100.00;100167.63;104957;1263;74757;-59
2023/09/04 01:02:50;;;;;;;12.40;8.80;;;;;;;18.35;100.00;100169.46;104969;1263;67148;-60
2023/09/04 01:05:17;;;;;;;9.90;8.80;;;;;;;18.33;100.00;100166.67;105204;1267;73127;-62
2023/09/04 01:07:45;;;;;;;10.30;8.70;;;;;;;18.30;100.00;100166.61;104949;1268;61360;-59
2023/09/04 01:10:12;;;;;;;13.50;9.70;;;;;;;18.27;100.00;100162.45;104930;1267;61167;-60
2023/09/04 01:12:48;;;;;;;13.50;9.50;;;;;;;18.23;100.00;100165.44;104847;1263;73196;-60
2023/09/04 01:15:15;;;;;;;12.00;8.70;;;;;;;18.20;100.00;100159.46;104820;1268;65957;-61
2023/09/04 01:17:43;;;;;;;11.50;7.90;;;;;;;18.16;100.00;100162.99;105005;1262;72222;-63
2023/09/04 01:20:27;;;;;;;13.90;8.70;;;;;;;18.12;100.00;100156.79;104911;1268;61306;-60
2023/09/04 01:22:55;;;;;;;10.90;8.80;;;;;;;18.08;100.00;100152.98;104941;1264;61364;-61
2023/09/04 01:25:24;;;;;;;10.20;8.70;;;;;;;18.05;100.00;100160.14;104878;1262;75317;-63
2023/09/04 01:28:22;;;;;;;12.40;8.50;;;;;;;18.02;100.00;100159.80;104869;1262;67235;-60
2023/09/04 01:30:59;;;;;;;11.10;8.40;;;;;;;17.97;100.00;100160.66;104913;1267;72793;-62
2023/09/04 01:33:29;;;;;;;11.40;8.80;;;;;;;17.93;100.00;100161.16;105054;1268;61264;-61
2023/09/04 01:35:58;;;;;;;13.00;8.30;;;;;;;17.89;100.00;100160.91;105035;1262;61349;-59
2023/09/04 01:38:25;;;;;;;12.50;8.40;;;;;;;17.85;100.00;100164.98;105195;1266;74645;-61
2023/09/04 01:40:52;;;;;;;14.60;8.20;;;;;;;17.83;100.00;100164.23;105028;1267;65962;-62
2023/09/04 01:43:19;;;;;;;12.60;8.70;;;;;;;17.81;100.00;100166.88;104737;1276;72796;-60
2023/09/04 01:45:46;;;;;;;11.60;9.00;;;;;;;17.78;100.00;100166.04;104904;1265;61090;-59
2023/09/04 01:48:13;;;;;;;9.90;8.20;;;;;;;17.77;100.00;100164.64;104936;1262;61229;-60
2023/09/04 01:50:40;;;;;;;10.80;8.60;;;;;;;17.76;100.00;100165.09;104766;1265;74663;-63
2023/09/04 01:53:07;;;;;;;11.10;8.40;;;;;;;17.74;100.00;100168.48;104974;1262;68385;-61
2023/09/04 01:55:34;;;;;;;11.70;8.00;;;;;;;17.71;100.00;100162.96;104947;1268;71264;-61
2023/09/04 01:58:02;;;;;;;11.10;8.50;;;;;;;17.69;100.00;100164.18;104856;1264;61278;-60
2023/09/04 02:00:29;;;;;;;12.40;9.20;;;;;;;17.66;100.00;100164.33;105112;1262;61269;-63
2023/09/04 02:02:56;;;;;;;11.60;8.50;;;;;;;17.62;100.00;100167.61;104918;1268;73370;-60
2023/09/04 02:05:24;;;;;;;11.60;8.20;;;;;;;17.58;100.00;100173.11;105050;1263;67118;-61
2023/09/04 02:07:51;;;;;;;10.90;7.70;;;;;;;17.55;100.00;100174.54;104980;1268;71243;-60
2023/09/04 02:10:18;;;;;;;12.50;8.10;;;;;;;17.53;100.00;100172.27;105048;1263;61346;-60
2023/09/04 02:12:45;;;;;;;12.00;8.60;;;;;;;17.49;100.00;100170.92;105103;1263;61208;-64
2023/09/04 02:15:12;;;;;;;11.40;8.90;;;;;;;17.45;100.00;100162.92;104823;1262;74136;-60
2023/09/04 02:17:39;;;;;;;12.10;8.50;;;;;;;17.41;100.00;100160.20;105029;1262;67150;-60
2023/09/04 02:20:07;;;;;;;13.10;7.90;;;;;;;17.38;100.00;100163.30;104966;1268;72697;-63
2023/09/04 02:22:34;;;;;;;9.70;7.70;;;;;;;17.34;100.00;100167.36;104799;1262;61360;-60
2023/09/04 02:25:01;;;;;;;11.80;8.30;;;;;;;17.33;100.00;100169.51;105206;1266;61238;-63
2023/09/04 02:27:28;;;;;;;10.90;8.00;;;;;;;17.33;100.00;100169.88;105046;1266;75542;-60
2023/09/04 02:29:55;;;;;;;10.30;7.40;;;;;;;17.30;100.00;100169.48;105069;1267;67182;-60
2023/09/04 02:32:22;;;;;;;11.90;8.20;;;;;;;17.28;100.00;100171.41;105020;1262;72811;-61
2023/09/04 02:34:49;;;;;;;12.50;8.10;;;;;;;17.28;100.00;100171.98;104942;1263;62033;-60
2023/09/04 02:37:16;;;;;;;8.90;7.10;;;;;;;17.28;100.00;100172.55;104960;1267;61295;-61
2023/09/04 02:39:44;;;;;;;9.50;7.40;;;;;;;17.28;100.00;100176.41;104946;1262;73633;-62
2023/09/04 02:42:11;;;;;;;11.90;7.80;;;;;;;17.28;100.00;100176.77;105151;1266;67225;-63
2023/09/04 02:44:38;;;;;;;11.90;8.90;;;;;;;17.27;100.00;100174.59;104830;1268;72772;-62
2023/09/04 02:47:05;;;;;;;10.50;8.00;;;;;;;17.26;100.00;100175.20;105233;1263;61992;-65
2023/09/04 02:49:32;;;;;;;9.70;7.20;;;;;;;17.24;100.00;100167.10;105018;1263;61269;-67
2023/09/04 02:51:59;;;;;;;10.40;7.60;;;;;;;17.22;100.00;100164.84;105082;1262;73191;-64
2023/09/04 02:54:26;;;;;;;10.10;8.20;;;;;;;17.22;100.00;100158.58;104839;1263;65802;-62
2023/09/04 02:56:53;;;;;;;11.10;8.20;;;;;;;17.24;100.00;100154.69;104975;1268;72815;-59
2023/09/04 02:59:20;;;;;;;10.10;7.70;;;;;;;17.26;100.00;100164.67;104908;1264;61438;-62
2023/09/04 03:01:49;;;;;;;10.60;8.00;;;;;;;17.27;100.00;100160.48;105005;1263;61275;-63
2023/09/04 03:04:16;;;;;;;9.70;7.40;;;;;;;17.25;100.00;100162.65;105037;1266;75237;-63
2023/09/04 03:06:44;;;;;;;11.20;7.20;;;;;;;17.24;100.00;100165.12;104992;1268;65898;-67
2023/09/04 03:09:11;;;;;;;9.80;8.10;;;;;;;17.24;100.00;100168.23;105018;1267;73060;-60
2023/09/04 03:11:38;;;;;;;10.50;8.30;;;;;;;17.25;100.00;100168.09;104945;1267;61273;-61
2023/09/04 03:14:05;;;;;;;11.80;8.20;;;;;;;17.27;100.00;100169.85;105179;1277;61145;-61
2023/09/04 03:16:33;;;;;;;12.20;8.10;;;;;;;17.28;100.00;100166.02;104759;1268;74387;-60
2023/09/04 03:19:00;;;;;;;12.10;8.00;;;;;;;17.30;100.00;100166.27;105068;1262;67160;-60
2023/09/04 03:21:42;;;;;;;8.80;7.30;;;;;;;17.33;100.00;100167.11;104663;1269;71015;-61
2023/09/04 03:24:09;;;;;;;10.00;6.90;;;;;;;17.40;100.00;100169.98;105178;1262;61864;-61
2023/09/04 03:26:36;;;;;;;10.20;8.40;;;;;;;17.52;100.00;100172.32;105125;1262;61359;-60
2023/09/04 03:29:04;;;;;;;10.70;7.90;;;;;;;17.83;100.00;100175.13;104932;1263;73465;-60
2023/09/04 03:31:32;;;;;;;8.10;6.50;;;;;;;18.31;100.00;100166.73;105072;1263;66087;-60
2023/09/04 03:34:00;;;;;;;8.30;6.80;;;;;;;18.89;100.00;100160.98;104945;1268;71517;-60
2023/09/04 03:36:29;;;;;;;9.80;7.60;;;;;;;19.46;100.00;100150.70;105002;1268;61242;-60
2023/09/04 03:38:56;;;;;;;8.70;6.90;;;;;;;20.00;100.00;100142.91;105018;1266;61290;-60
2023/09/04 03:41:24;;;;;;;9.00;7.10;;;;;;;20.56;100.00;100129.40;105023;1266;74774;-64
2023/09/04 03:43:51;;;;;;;17.20;6.50;;;;;;;21.09;100.00;100117.09;104747;1266;65486;-61
2023/09/04 03:46:18;;;;;;;8.70;6.70;;;;;;;21.56;100.00;100113.50;105059;1267;71551;-62
2023/09/04 03:48:47;;;;;;;8.70;7.00;;;;;;;22.10;100.00;100105.33;104864;1266;61250;-60
2023/09/04 03:51:14;;;;;;;8.00;6.30;;;;;;;22.63;100.00;100101.25;105125;1263;61329;-60
2023/09/04 03:53:42;;;;;;;10.50;7.10;;;;;;;23.09;100.00;100095.95;105005;1269;74491;-62
2023/09/04 03:56:09;;;;;;;8.80;6.20;;;;;;;23.50;100.00;100090.23;105137;1267;65798;-63
2023/09/04 03:58:36;;;;;;;9.80;6.30;;;;;;;23.84;100.00;100092.70;104585;1266;73021;-61
2023/09/04 04:01:04;;;;;;;9.20;6.60;;;;;;;24.23;100.00;100099.59;105082;1268;61197;-60
2023/09/04 04:03:31;;;;;;;10.50;6.50;;;;;;;24.52;100.00;100093.80;105232;1263;61266;-62
2023/09/04 04:05:58;;;;;;;7.60;6.30;;;;;;;24.78;100.00;100092.89;104754;1268;74532;-61
2023/09/04 04:08:25;;;;;;;6.90;5.90;;;;;;;25.10;100.00;100088.73;105008;1263;67116;-62
2023/09/04 04:10:57;;;;;;;8.00;7.00;;;;;;;25.50;100.00;100092.45;104993;1267;72565;-61
2023/09/04 04:13:24;;;;;;;7.00;6.00;;;;;;;25.88;100.00;100089.77;105167;1268;61357;-64
2023/09/04 04:15:51;;;;;;;6.80;6.00;;;;;;;26.30;100.00;100084.23;105008;1266;61167;-61
2023/09/04 04:18:19;;;;;;;8.40;6.00;;;;;;;26.69;100.00;100082.54;104895;1262;74774;-64
2023/09/04 04:20:47;;;;;;;7.60;5.80;;;;;;;27.08;100.00;100075.58;105046;1263;67744;-61
2023/09/04 04:23:14;;;;;;;6.90;5.70;;;;;;;27.34;100.00;100073.36;105066;1266;71356;-60
2023/09/04 04:25:41;;;;;;;7.50;6.20;;;;;;;27.56;100.00;100074.66;105096;1268;61324;-61
2023/09/04 04:28:08;;;;;;;7.60;6.80;;;;;;;27.75;100.00;100069.67;104969;1266;61173;-61
2023/09/04 04:30:36;;;;;;;7.90;6.20;;;;;;;27.88;100.00;100070.73;104993;1264;73485;-62
2023/09/04 04:33:04;;;;;;;7.30;5.80;;;;;;;28.08;99.45;100069.20;104918;1265;66426;-61
2023/09/04 04:35:31;;;;;;;7.00;5.70;;;;;;;28.38;97.68;100068.74;105053;1268;71956;-64
2023/09/04 04:37:58;;;;;;;6.30;5.30;;;;;;;28.82;94.94;100065.55;104995;1262;61376;-62
2023/09/04 04:40:26;;;;;;;6.70;5.40;;;;;;;29.42;88.94;100069.65;105094;1264;61260;-63
2023/09/04 04:42:53;;;;;;;7.40;5.30;;;;;;;29.82;74.74;100067.64;104884;1267;74417;-61
2023/09/04 04:45:20;;;;;;;8.80;5.40;;;;;;;29.89;71.22;100068.77;105080;1263;65892;-65
2023/09/04 04:47:49;;;;;;;7.00;5.00;;;;;;;29.91;69.78;100073.48;104961;1267;72741;-61
2023/09/04 04:50:16;;;;;;;9.70;5.70;;;;;;;29.93;66.75;100080.37;104958;1264;61212;-62
2023/09/04 04:52:43;;;;;;;6.70;5.40;;;;;;;29.70;64.32;100086.12;104845;1264;60107;-61
2023/09/04 04:55:10;;;;;;;6.20;5.50;;;;;;;29.38;67.02;100086.02;104815;1265;73458;-60
2023/09/04 04:57:37;;;;;;;6.90;5.50;;;;;;;29.16;69.08;100087.39;105147;1267;67228;-62
2023/09/04 05:00:06;;;;;;;6.90;5.30;;;;;;;29.13;71.93;100085.48;104751;1265;71491;-61
2023/09/04 05:02:34;;;;;;;6.50;4.80;;;;;;;29.31;70.79;100088.08;104976;1263;61768;-62
2023/09/04 05:05:01;;;;;;;9.80;4.70;;;;;;;29.45;69.12;100093.58;105044;1266;61254;-61
2023/09/04 05:07:29;;;;;;;5.60;5.00;;;;;;;29.55;67.61;100092.44;104683;1266;74502;-61
2023/09/04 05:09:57;;;;;;;7.00;4.40;;;;;;;29.64;66.25;100098.60;104779;1268;65978;-61
2023/09/04 05:12:24;;;;;;;6.40;4.90;;;;;;;29.59;62.54;100099.66;104879;1267;72124;-63
2023/09/04 05:14:52;;;;;;;7.30;5.00;;;;;;;29.30;64.23;100101.91;104793;1264;61168;-61
2023/09/04 05:17:19;;;;;;;5.80;5.10;;;;;;;29.02;67.27;100105.64;105150;1263;61325;-60
2023/09/04 05:19:47;;;;;;;5.70;4.70;;;;;;;28.77;70.19;100106.80;105354;1263;73528;-63
2023/09/04 05:22:14;;;;;;;6.70;5.30;;;;;;;28.68;72.97;100108.27;104679;1268;65982;-61
2023/09/04 05:24:41;;;;;;;5.40;4.90;;;;;;;28.67;72.71;100112.22;105064;1268;71782;-61
2023/09/04 05:27:08;;;;;;;6.20;5.20;;;;;;;28.55;75.87;100119.42;105014;1268;61321;-61
2023/09/04 05:29:35;;;;;;;9.00;4.70;;;;;;;28.46;78.44;100121.77;105015;1267;61176;-61
2023/09/04 05:32:02;;;;;;;5.90;5.30;;;;;;;28.32;81.43;100125.05;105219;1266;74591;-63
2023/09/04 05:34:29;;;;;;;6.30;5.10;;;;;;;28.01;83.76;100123.31;105300;1265;66242;-64
2023/09/04 05:36:56;;;;;;;6.40;5.00;;;;;;;27.42;88.08;100123.56;104967;1267;73233;-60
2023/09/04 05:39:23;;;;;;;5.60;5.00;;;;;;;26.86;96.13;100132.79;105082;1266;61338;-60
2023/09/04 05:41:51;;;;;;;6.30;5.00;;;;;;;26.40;99.51;100140.42;105132;1266;61300;-62
2023/09/04 05:44:17;;;;;;;6.20;5.40;;;;;;;26.12;100.00;100137.73;105049;1276;74625;-60
2023/09/04 05:46:44;;;;;;;8.00;5.20;;;;;;;26.03;100.00;100140.63;105094;1266;67262;-62
2023/09/04 05:49:11;;;;;;;7.40;5.40;;;;;;;25.97;100.00;100145.20;104692;1276;71511;-60
2023/09/04 05:51:39;;;;;;;6.50;5.00;;;;;;;25.89;100.00;100148.09;104927;1268;61376;-59
2023/09/04 05:54:06;;;;;;;6.40;4.80;;;;;;;25.76;100.00;100139.26;105109;1268;61408;-61
2023/09/04 05:56:33;;;;;;;7.40;5.00;;;;;;;25.97;100.00;100136.13;105073;1266;72979;-60
2023/09/04 05:59:00;;;;;;;9.50;5.20;;;;;;;26.28;100.00;100140.02;104922;1267;67804;-60
2023/09/04 06:01:27;;;;;;;7.20;5.10;;;;;;;26.30;100.00;100133.89;104903;1263;71942;-60
2023/09/04 06:03:54;;;;;;;6.40;4.80;;;;;;;26.29;100.00;100135.66;105108;1267;61214;-62
2023/09/04 06:06:21;;;;;;;5.20;4.30;;;;;;;26.22;100.00;100132.51;104916;1263;61480;-60
2023/09/04 06:08:48;;;;;;;7.00;4.90;;;;;;;26.21;100.00;100128.04;105195;1267;74030;-62
2023/09/04 06:11:15;;;;;;;7.70;5.50;;;;;;;26.31;100.00;100126.75;104935;1266;68238;-61
2023/09/04 06:13:42;;;;;;;10.20;5.00;;;;;;;26.38;100.00;100117.77;104968;1266;72717;-61
2023/09/04 06:16:10;;;;;;;7.30;5.70;;;;;;;26.43;100.00;100102.48;104968;1264;61245;-62
2023/09/04 06:18:37;;;;;;;8.60;5.10;;;;;;;26.71;100.00;100106.83;104993;1275;61244;-61
2023/09/04 06:21:04;;;;;;;5.50;4.20;;;;;;;26.99;99.91;100115.38;105070;1264;75162;-59
2023/09/04 06:23:32;;;;;;;6.20;4.80;;;;;;;27.26;96.52;100116.60;105025;1268;65954;-60
2023/09/04 06:26:02;;;;;;;5.40;3.60;;;;;;;27.51;89.27;100110.10;105054;1264;72162;-64
2023/09/04 06:28:29;;;;;;;6.80;4.60;;;;;;;27.85;83.89;100104.41;104931;1268;61259;-61
2023/09/04 06:30:56;;;;;;;7.60;4.40;;;;;;;28.40;80.17;100101.67;105027;1264;60511;-61
2023/09/04 06:33:25;;;;;;;8.40;4.10;;;;;;;28.88;69.46;100104.11;104698;1267;74738;-61
2023/09/04 06:35:54;;;;;;;5.50;3.70;;;;;;;29.07;65.26;100108.48;104966;1266;65980;-62
2023/09/04 06:38:22;;;;;;;5.10;3.50;;;;;;;29.31;63.62;100109.09;104904;1263;72519;-61
2023/09/04 06:40:57;;;;;;;6.20;3.80;;;;;;;29.77;59.94;100102.44;105090;1267;61198;-63
2023/09/04 06:43:25;;;;;;;6.90;3.70;;;;;;;30.21;55.54;100096.32;104981;1264;61124;-61
2023/09/04 06:45:52;;;;;;;7.90;3.70;;;;;;;30.49;52.85;100094.65;105323;1264;75103;-60
2023/09/04 06:48:20;;;;;;;8.20;4.10;;;;;;;30.62;49.37;100100.67;104994;1266;61205;-61
2023/09/04 06:50:49;;;;;;;5.50;3.50;;;;;;;30.42;47.21;100095.81;105031;1267;72701;-61
2023/09/04 06:53:16;;;;;;;7.20;3.40;;;;;;;30.05;50.71;100097.35;105026;1268;61232;-61
2023/09/04 06:55:44;;;;;;;6.10;3.70;;;;;;;30.13;53.67;100098.59;104985;1267;61181;-61
2023/09/04 06:58:11;;;;;;;6.00;3.40;;;;;;;30.61;52.18;100103.33;105423;1264;74408;-64
2023/09/04 07:00:38;;;;;;;6.40;3.60;;;;;;;30.96;49.41;100094.37;105008;1266;67771;-61
2023/09/04 07:03:05;;;;;;;9.20;4.20;;;;;;;31.22;46.37;100093.58;105128;1266;72614;-61
2023/09/04 07:05:32;;;;;;;7.40;3.60;;;;;;;31.48;47.83;100093.34;105055;1263;61353;-61
2023/09/04 07:07:59;;;;;;;6.50;3.30;;;;;;;32.04;44.87;100090.18;105195;1264;61356;-61
2023/09/04 07:10:26;;;;;;;7.90;4.90;;;;;;;32.38;42.15;100094.38;105178;1264;73691;-64
2023/09/04 07:12:53;;;;;;;8.30;3.70;;;;;;;32.44;40.97;100093.48;104796;1264;61241;-62
2023/09/04 07:15:20;;;;;;;6.00;3.60;;;;;;;32.42;39.94;100089.30;104866;1264;72514;-62
2023/09/04 07:17:48;;;;;;;6.30;3.50;;;;;;;32.39;39.22;100090.96;105047;1266;61253;-62
2023/09/04 07:20:15;;;;;;;5.10;3.50;;;;;;;32.60;39.84;100087.36;105059;1267;59686;-61
2023/09/04 07:22:42;;;;;;;5.50;3.70;;;;;;;32.96;38.84;100081.45;105147;1266;75234;-64
2023/09/04 07:25:10;;;;;;;8.30;3.50;;;;;;;33.26;38.80;100087.47;104748;1264;66945;-62
2023/09/04 07:27:37;;;;;;;6.90;4.20;;;;;;;33.46;37.58;100089.42;105055;1264;71798;-61
2023/09/04 07:30:05;;;;;;;8.00;4.10;;;;;;;33.55;36.81;100086.21;105049;1264;62041;-59
2023/09/04 07:32:32;;;;;;;6.60;3.70;;;;;;;33.58;36.13;100081.75;105166;1263;61247;-64
2023/09/04 07:34:59;;;;;;;5.70;3.60;;;;;;;33.40;35.52;100084.73;104793;1264;73243;-61
2023/09/04 07:37:27;;;;;;;7.90;3.50;;;;;;;33.29;35.77;100083.55;104890;1262;67426;-62
2023/09/04 07:39:54;;;;;;;7.90;3.70;;;;;;;33.54;35.75;100078.83;105049;1264;73138;-61
2023/09/04 07:42:21;;;;;;;10.10;3.70;;;;;;;34.02;35.65;100079.51;105221;1267;61287;-65
2023/09/04 07:44:49;;;;;;;7.60;3.50;;;;;;;34.44;34.07;100081.33;105046;1267;60980;-61
2023/09/04 07:47:16;;;;;;;6.70;4.20;;;;;;;34.49;33.52;100075.74;105058;1266;66070;-62
2023/09/04 07:49:43;;;;;;;7.00;4.20;;;;;;;34.30;33.64;100076.63;105121;1264;67496;-61
2023/09/04 07:52:10;;;;;;;7.60;4.30;;;;;;;34.30;33.96;100078.95;105089;1266;62848;-61
2023/09/04 07:54:37;;;;;;;9.60;5.10;;;;;;;34.62;34.45;100081.55;105311;1264;61391;-65
2023/09/04 07:57:05;;;;;;;5.70;4.00;;;;;;;35.02;33.98;100083.45;104830;1267;60289;-61
2023/09/04 07:59:32;;;;;;;7.30;3.80;;;;;;;35.36;32.84;100081.21;105036;1262;64817;-60
2023/09/04 08:01:59;;;;;;;8.80;3.80;;;;;;;35.51;32.39;100079.08;104969;1264;67203;-60
2023/09/04 08:04:26;;;;;;;9.70;4.20;;;;;;;35.56;32.15;100077.55;105048;1267;64192;-63
2023/09/04 08:06:55;;;;;;;5.90;3.90;;;;;;;35.72;31.78;100077.40;105255;1266;61373;-64
2023/09/04 08:09:23;;;;;;;6.40;3.60;;;;;;;35.86;31.51;100075.59;104930;1267;60577;-61
2023/09/04 08:11:50;;;;;;;9.20;4.00;;;;;;;35.79;31.12;100071.95;105070;1264;64846;-60
2023/09/04 08:14:17;;;;;;;5.90;3.50;;;;;;;35.68;31.54;100071.20;105044;1264;61279;-60
2023/09/04 08:16:44;;;;;;;6.90;3.40;;;;;;;35.46;30.99;100067.04;104924;1267;64561;-61
2023/09/04 08:19:11;;;;;;;7.10;4.60;;;;;;;35.07;31.90;100069.42;105138;1266;61221;-63
2023/09/04 08:21:39;;;;;;;8.80;4.20;;;;;;;35.11;32.59;100069.03;104913;1264;61330;-61
2023/09/04 08:24:06;;;;;;;5.30;3.60;;;;;;;35.54;32.16;100066.58;105146;1263;64757;-62
2023/09/04 08:26:33;;;;;;;5.90;3.60;;;;;;;35.86;31.36;100069.55;104916;1268;61149;-62
2023/09/04 08:29:00;;;;;;;8.10;5.10;;;;;;;36.18;30.57;100075.59;105228;1264;64105;-64
2023/09/04 08:31:27;;;;;;;8.80;4.40;;;;;;;36.30;30.23;100075.89;104712;1263;61336;-64
2023/09/04 08:33:54;;;;;;;6.20;4.30;;;;;;;36.21;30.55;100070.84;105045;1263;61317;-60
2023/09/04 08:36:21;;;;;;;7.70;4.20;;;;;;;36.04;31.24;100077.48;104983;1264;65543;-61
2023/09/04 08:38:48;;;;;;;5.40;3.80;;;;;;;35.92;31.07;100080.89;104968;1272;61136;-60
2023/09/04 08:41:16;;;;;;;8.40;4.30;;;;;;;36.00;31.76;100085.17;105027;1263;63963;-62
2023/09/04 08:43:44;;;;;;;7.00;4.20;;;;;;;36.20;31.19;100087.41;104971;1263;61976;-60
2023/09/04 08:46:10;;;;;;;8.30;4.40;;;;;;;36.19;30.87;100087.39;105080;1263;60503;-63
2023/09/04 08:48:42;;;;;;;6.70;4.40;;;;;;;35.95;30.68;100088.88;104947;1267;66182;-61
2023/09/04 08:51:09;;;;;;;6.40;4.60;;;;;;;35.40;31.28;100094.52;105209;1265;61309;-62
2023/09/04 08:53:36;;;;;;;8.30;3.30;;;;;;;34.95;32.17;100106.73;105029;1267;62912;-61
2023/09/04 08:56:04;;;;;;;5.70;3.30;;;;;;;34.79;32.92;100106.41;104984;1267;61264;-61
2023/09/04 08:58:31;;;;;;;7.40;4.60;;;;;;;34.79;33.34;100110.14;105197;1266;61104;-62
2023/09/04 09:00:58;;;;;;;6.60;3.80;;;;;;;34.82;33.01;100113.31;104893;1266;66165;-60
2023/09/04 09:03:25;;;;;;;9.80;4.80;;;;;;;34.81;33.05;100116.77;105146;1263;69495;-63
2023/09/04 09:05:55;;;;;;;8.00;4.20;;;;;;;34.81;32.90;100116.14;105023;1268;64224;-60
2023/09/04 09:08:24;;;;;;;6.30;4.80;;;;;;;34.97;32.72;100116.45;105105;1268;61359;-62
2023/09/04 09:10:51;;;;;;;7.30;4.00;;;;;;;34.92;32.25;100117.66;105131;1267;61273;-60
2023/09/04 09:13:19;;;;;;;8.10;4.30;;;;;;;34.73;32.66;100121.36;105340;1262;73655;-60
2023/09/04 09:15:46;;;;;;;6.50;4.50;;;;;;;34.58;33.34;100125.16;104913;1267;61339;-60
2023/09/04 09:18:33;;;;;;;11.70;4.40;;;;;;;34.39;33.03;100134.06;104830;1267;191016;-63
2023/09/04 09:21:00;;;;;;;7.80;4.30;;;;;;;34.01;34.27;100134.95;105099;1262;61224;-60
2023/09/04 09:23:29;;;;;;;7.30;4.50;;;;;;;33.86;34.46;100134.13;105025;1268;61348;-61
2023/09/04 09:25:56;;;;;;;7.90;5.40;;;;;;;33.90;35.75;100137.27;104929;1262;73314;-60
2023/09/04 09:28:23;;;;;;;8.00;4.70;;;;;;;34.16;34.94;100137.23;104973;1266;66030;-62
2023/09/04 09:30:51;;;;;;;7.70;4.90;;;;;;;34.25;33.91;100137.95;105019;1263;63856;-60
2023/09/04 09:33:20;;;;;;;6.80;4.40;;;;;;;34.29;34.33;100136.66;105015;1264;61477;-61
2023/09/04 09:35:47;;;;;;;8.40;4.50;;;;;;;34.42;33.20;100140.11;104847;1264;61341;-60
2023/09/04 09:38:14;;;;;;;9.60;4.60;;;;;;;34.35;32.83;100146.09;105089;1264;73352;-63
2023/09/04 09:40:44;;;;;;;9.20;5.20;;;;;;;34.17;32.79;100140.96;105114;1266;61829;-60
2023/09/04 09:43:11;;;;;;;6.10;4.60;;;;;;;34.00;33.26;100143.43;104998;1267;64367;-60
2023/09/04 09:45:38;;;;;;;8.30;4.90;;;;;;;33.74;33.01;100150.79;105002;1267;61374;-61
2023/09/04 09:48:06;;;;;;;7.60;4.70;;;;;;;33.23;32.92;100153.84;104700;1267;61290;-60
2023/09/04 09:50:39;;;;;;;9.30;4.70;;;;;;;32.67;33.95;100155.92;104912;1264;74979;-61
2023/09/04 09:53:06;;;;;;;9.40;4.80;;;;;;;32.36;35.47;100157.23;105006;1264;66787;-60
2023/09/04 09:55:34;;;;;;;8.00;4.40;;;;;;;32.31;36.11;100158.55;105032;1267;72584;-62
2023/09/04 09:58:01;;;;;;;13.50;5.10;;;;;;;32.22;35.95;100164.89;105047;1267;61354;-62
2023/09/04 10:00:29;;;;;;;6.60;4.80;;;;;;;32.11;36.90;100167.11;104971;1265;61274;-60
2023/09/04 10:02:57;;;;;;;11.60;4.80;;;;;;;32.02;38.17;100166.98;105142;1264;73181;-60
2023/09/04 10:05:25;;;;;;;7.90;5.00;;;;;;;32.16;39.76;100169.08;104995;1267;66037;-60
2023/09/04 10:07:57;;;;;;;8.80;4.80;;;;;;;32.38;38.74;100170.02;104886;1267;72310;-60
2023/09/04 10:10:24;;;;;;;9.30;5.00;;;;;;;32.42;37.86;100165.70;104908;1267;61424;-61
2023/09/04 10:13:19;;;;;;;6.80;4.80;;;;;;;32.25;37.98;100169.86;104917;1264;61387;-60
2023/09/04 10:15:50;;;;;;;6.10;4.30;;;;;;;32.12;39.17;100161.28;105033;1266;74655;-62
2023/09/04 10:18:26;;;;;;;10.50;4.90;;;;;;;32.39;40.06;100160.80;105063;1264;67133;-61
2023/09/04 10:20:53;;;;;;;7.20;5.00;;;;;;;32.80;39.09;100157.25;104935;1263;72630;-64
2023/09/04 10:23:27;;;;;;;6.10;4.30;;;;;;;33.19;39.05;100156.02;104889;1264;60475;-62
2023/09/04 10:25:58;;;;;;;9.40;4.60;;;;;;;33.64;38.41;100157.35;105015;1262;61323;-61
2023/09/04 10:28:36;;;;;;;6.20;4.80;;;;;;;34.15;36.39;100159.08;105003;1263;73467;-62
2023/09/04 10:31:11;;;;;;;7.80;4.70;;;;;;;34.45;35.61;100154.20;104945;1264;67445;-63
2023/09/04 10:33:38;;;;;;;6.60;4.50;;;;;;;34.59;34.81;100159.77;104594;1270;64467;-61
2023/09/04 10:36:05;;;;;;;7.40;3.50;;;;;;;34.66;34.17;100163.65;104948;1263;61244;-60
2023/09/04 10:38:33;;;;;;;7.30;4.00;;;;;;;34.46;33.59;100168.59;105102;1263;61220;-60
2023/09/04 10:41:00;;;;;;;5.40;4.00;;;;;;;34.18;34.05;100167.52;105370;1266;65074;-61
2023/09/04 10:43:40;;;;;;;7.10;4.00;;;;;;;34.15;34.56;100165.96;104831;1264;61170;-60
2023/09/04 10:46:08;;;;;;;9.70;4.60;;;;;;;34.12;34.33;100165.11;105063;1267;72580;-60
2023/09/04 10:48:42;;;;;;;5.80;4.00;;;;;;;33.96;34.67;100167.11;104886;1266;61329;-62
2023/09/04 10:51:30;;;;;;;6.80;3.40;;;;;;;33.77;34.30;100167.26;105160;1266;61135;-61
2023/09/04 10:54:02;;;;;;;5.50;3.90;;;;;;;33.87;35.40;100165.32;104984;1263;73466;-60
2023/09/04 10:56:59;;;;;;;8.70;4.00;;;;;;;34.24;35.12;100163.96;105006;1267;61243;-62
2023/09/04 10:59:27;;;;;;;7.00;3.90;;;;;;;34.64;34.23;100160.58;104880;1264;65510;-60
2023/09/04 11:01:54;;;;;;;6.40;3.70;;;;;;;34.92;33.10;100166.80;105221;1267;61243;-62
2023/09/04 11:04:43;;;;;;;8.40;3.80;;;;;;;35.10;32.36;100162.08;105138;1264;61514;-62
2023/09/04 11:07:24;;;;;;;7.70;3.60;;;;;;;35.34;32.31;100159.30;104838;1266;67666;-61
2023/09/04 11:09:52;;;;;;;6.60;3.60;;;;;;;35.65;31.73;100160.39;105100;1262;61009;-62
2023/09/04 11:12:22;;;;;;;27.20;5.70;;;;;;;35.69;31.68;100162.87;105033;1263;66229;-60
2023/09/04 11:14:54;;;;;;;6.70;3.50;;;;;;;35.86;31.84;100162.95;104992;1263;61998;-60
2023/09/04 11:17:28;;;;;;;7.70;3.80;;;;;;;36.05;31.02;100160.16;105442;1262;61273;-63